sensor_id;sensor_type;location;lat;lon;timestamp;temperature;humidity
29241;DHT22;16268;49.880;8.648;2023-02-18T00:00:16;12.40;99.90
29241;DHT22;16268;49.880;8.648;2023-02-18T00:02:43;12.40;99.90
29241;DHT22;16268;49.880;8.648;2023-02-18T00:05:09;12.40;99.90
29241;DHT22;16268;49.880;8.648;2023-02-18T00:07:36;12.40;99.90
29241;DHT22;16268;49.880;8.648;2023-02-18T00:10:04;12.40;99.90
29241;DHT22;16268;49.880;8.648;2023-02-18T00:12:30;12.40;99.90
29241;DHT22;16268;49.880;8.648;2023-02-18T00:14:56;12.40;99.90
29241;DHT22;16268;49.880;8.648;2023-02-18T00:17:22;12.40;99.90
29241;DHT22;16268;49.880;8.648;2023-02-18T00:19:47;12.40;99.90
29241;DHT22;16268;49.880;8.648;2023-02-18T00:22:13;12.40;99.90
29241;DHT22;16268;49.880;8.648;2023-02-18T00:24:39;12.30;99.90
29241;DHT22;16268;49.880;8.648;2023-02-18T00:27:04;12.40;99.90
29241;DHT22;16268;49.880;8.648;2023-02-18T00:29:30;12.40;99.90
29241;DHT22;16268;49.880;8.648;2023-02-18T00:31:56;12.40;99.90
29241;DHT22;16268;49.880;8.648;2023-02-18T00:34:21;12.30;99.90
29241;DHT22;16268;49.880;8.648;2023-02-18T00:36:47;12.30;99.90
29241;DHT22;16268;49.880;8.648;2023-02-18T00:39:12;12.30;99.90
29241;DHT22;16268;49.880;8.648;2023-02-18T00:41:38;12.30;99.90
29241;DHT22;16268;49.880;8.648;2023-02-18T00:44:04;12.20;99.90
29241;DHT22;16268;49.880;8.648;2023-02-18T00:46:31;12.20;99.90
29241;DHT22;16268;49.880;8.648;2023-02-18T00:48:57;12.10;99.90
29241;DHT22;16268;49.880;8.648;2023-02-18T00:51:23;12.20;99.90
29241;DHT22;16268;49.880;8.648;2023-02-18T00:53:50;12.20;99.90
29241;DHT22;16268;49.880;8.648;2023-02-18T00:56:15;12.20;99.90
29241;DHT22;16268;49.880;8.648;2023-02-18T00:58:41;12.20;99.90
29241;DHT22;16268;49.880;8.648;2023-02-18T01:01:08;12.20;99.90
29241;DHT22;16268;49.880;8.648;2023-02-18T01:03:35;12.20;99.90
29241;DHT22;16268;49.880;8.648;2023-02-18T01:06:01;12.20;99.90
29241;DHT22;16268;49.880;8.648;2023-02-18T01:08:26;12.20;99.90
29241;DHT22;16268;49.880;8.648;2023-02-18T01:10:55;12.20;99.90
29241;DHT22;16268;49.880;8.648;2023-02-18T01:13:21;12.20;99.90
29241;DHT22;16268;49.880;8.648;2023-02-18T01:15:51;12.20;99.90
29241;DHT22;16268;49.880;8.648;2023-02-18T01:18:17;12.10;99.90
29241;DHT22;16268;49.880;8.648;2023-02-18T01:20:43;12.10;99.90
29241;DHT22;16268;49.880;8.648;2023-02-18T01:23:10;12.10;99.90
29241;DHT22;16268;49.880;8.648;2023-02-18T01:25:36;12.10;99.90
29241;DHT22;16268;49.880;8.648;2023-02-18T01:28:03;12.00;99.90
29241;DHT22;16268;49.880;8.648;2023-02-18T01:30:29;12.10;99.90
29241;DHT22;16268;49.880;8.648;2023-02-18T01:32:55;12.00;99.90
29241;DHT22;16268;49.880;8.648;2023-02-18T01:35:21;12.00;99.90
29241;DHT22;16268;49.880;8.648;2023-02-18T01:37:48;12.00;99.90
29241;DHT22;16268;49.880;8.648;2023-02-18T01:40:16;12.00;99.90
29241;DHT22;16268;49.880;8.648;2023-02-18T01:42:42;12.10;99.90
29241;DHT22;16268;49.880;8.648;2023-02-18T01:48:29;11.90;99.90
29241;DHT22;16268;49.880;8.648;2023-02-18T01:51:30;11.90;99.90
29241;DHT22;16268;49.880;8.648;2023-02-18T01:56:38;12.00;99.90
29241;DHT22;16268;49.880;8.648;2023-02-18T01:59:08;12.00;99.90
29241;DHT22;16268;49.880;8.648;2023-02-18T02:01:35;12.10;99.90
29241;DHT22;16268;49.880;8.648;2023-02-18T02:04:02;12.10;99.90
29241;DHT22;16268;49.880;8.648;2023-02-18T02:06:27;12.00;99.90
29241;DHT22;16268;49.880;8.648;2023-02-18T02:08:56;12.00;99.90
29241;DHT22;16268;49.880;8.648;2023-02-18T02:35:25;12.00;99.90
29241;DHT22;16268;49.880;8.648;2023-02-18T02:40:22;11.90;99.90
29241;DHT22;16268;49.880;8.648;2023-02-18T02:45:44;11.90;99.90
29241;DHT22;16268;49.880;8.648;2023-02-18T02:48:27;11.90;99.90
29241;DHT22;16268;49.880;8.648;2023-02-18T02:53:36;11.80;99.90
29241;DHT22;16268;49.880;8.648;2023-02-18T02:56:02;11.90;99.90
29241;DHT22;16268;49.880;8.648;2023-02-18T02:58:28;11.80;99.90
29241;DHT22;16268;49.880;8.648;2023-02-18T03:01:19;11.80;99.90
29241;DHT22;16268;49.880;8.648;2023-02-18T03:06:57;11.80;99.90
29241;DHT22;16268;49.880;8.648;2023-02-18T03:09:46;11.80;99.90
29241;DHT22;16268;49.880;8.648;2023-02-18T03:12:18;11.90;99.90
29241;DHT22;16268;49.880;8.648;2023-02-18T03:14:58;11.90;99.90
29241;DHT22;16268;49.880;8.648;2023-02-18T03:17:29;11.90;99.90
29241;DHT22;16268;49.880;8.648;2023-02-18T03:22:39;11.80;99.90
29241;DHT22;16268;49.880;8.648;2023-02-18T03:25:06;11.80;99.90
29241;DHT22;16268;49.880;8.648;2023-02-18T03:27:38;11.80;99.90
29241;DHT22;16268;49.880;8.648;2023-02-18T03:30:24;11.80;99.90
29241;DHT22;16268;49.880;8.648;2023-02-18T03:32:54;11.70;99.90
29241;DHT22;16268;49.880;8.648;2023-02-18T03:35:22;11.80;99.90
29241;DHT22;16268;49.880;8.648;2023-02-18T03:38:25;11.80;99.90
29241;DHT22;16268;49.880;8.648;2023-02-18T03:40:52;11.80;99.90
29241;DHT22;16268;49.880;8.648;2023-02-18T03:43:18;11.90;99.90
29241;DHT22;16268;49.880;8.648;2023-02-18T03:45:43;11.90;99.90
29241;DHT22;16268;49.880;8.648;2023-02-18T03:48:09;11.90;99.90
29241;DHT22;16268;49.880;8.648;2023-02-18T03:50:35;12.00;99.90
29241;DHT22;16268;49.880;8.648;2023-02-18T03:53:01;11.90;99.90
29241;DHT22;16268;49.880;8.648;2023-02-18T03:55:26;11.90;99.90
29241;DHT22;16268;49.880;8.648;2023-02-18T03:57:52;11.90;99.90
29241;DHT22;16268;49.880;8.648;2023-02-18T04:00:18;11.90;99.90
29241;DHT22;16268;49.880;8.648;2023-02-18T04:02:44;11.90;99.90
29241;DHT22;16268;49.880;8.648;2023-02-18T04:05:10;11.80;99.90
29241;DHT22;16268;49.880;8.648;2023-02-18T04:07:36;11.90;99.90
29241;DHT22;16268;49.880;8.648;2023-02-18T04:10:02;11.90;99.90
29241;DHT22;16268;49.880;8.648;2023-02-18T04:12:28;11.90;99.90
29241;DHT22;16268;49.880;8.648;2023-02-18T04:14:53;11.90;99.90
29241;DHT22;16268;49.880;8.648;2023-02-18T04:17:19;11.90;99.90
29241;DHT22;16268;49.880;8.648;2023-02-18T04:19:44;11.90;99.90
29241;DHT22;16268;49.880;8.648;2023-02-18T04:22:10;12.00;99.90
29241;DHT22;16268;49.880;8.648;2023-02-18T04:24:36;12.00;99.90
29241;DHT22;16268;49.880;8.648;2023-02-18T04:27:01;12.00;99.90
29241;DHT22;16268;49.880;8.648;2023-02-18T04:29:27;12.00;99.90
29241;DHT22;16268;49.880;8.648;2023-02-18T04:31:52;12.00;99.90
29241;DHT22;16268;49.880;8.648;2023-02-18T04:34:18;11.90;99.90
29241;DHT22;16268;49.880;8.648;2023-02-18T04:36:44;12.00;99.90
29241;DHT22;16268;49.880;8.648;2023-02-18T04:39:09;12.00;99.90
29241;DHT22;16268;49.880;8.648;2023-02-18T04:41:35;11.90;99.90
29241;DHT22;16268;49.880;8.648;2023-02-18T04:44:00;11.90;99.90
29241;DHT22;16268;49.880;8.648;2023-02-18T04:46:26;11.90;99.90
29241;DHT22;16268;49.880;8.648;2023-02-18T04:48:51;11.90;99.90
29241;DHT22;16268;49.880;8.648;2023-02-18T04:51:17;11.90;99.90
29241;DHT22;16268;49.880;8.648;2023-02-18T04:53:43;11.90;99.90
29241;DHT22;16268;49.880;8.648;2023-02-18T04:56:08;11.90;99.90
29241;DHT22;16268;49.880;8.648;2023-02-18T04:58:34;11.90;99.90
29241;DHT22;16268;49.880;8.648;2023-02-18T05:01:03;12.00;99.90
29241;DHT22;16268;49.880;8.648;2023-02-18T05:03:29;11.90;99.90
29241;DHT22;16268;49.880;8.648;2023-02-18T05:05:54;11.90;99.90
29241;DHT22;16268;49.880;8.648;2023-02-18T05:08:20;11.90;99.90
29241;DHT22;16268;49.880;8.648;2023-02-18T05:10:46;11.90;99.90
29241;DHT22;16268;49.880;8.648;2023-02-18T05:13:11;11.90;99.90
29241;DHT22;16268;49.880;8.648;2023-02-18T05:15:37;11.90;99.90
29241;DHT22;16268;49.880;8.648;2023-02-18T05:18:03;11.90;99.90
29241;DHT22;16268;49.880;8.648;2023-02-18T05:20:29;11.90;99.90
29241;DHT22;16268;49.880;8.648;2023-02-18T05:22:54;11.80;99.90
29241;DHT22;16268;49.880;8.648;2023-02-18T05:25:20;11.90;99.90
29241;DHT22;16268;49.880;8.648;2023-02-18T05:27:46;11.80;99.90
29241;DHT22;16268;49.880;8.648;2023-02-18T05:30:12;11.80;99.90
29241;DHT22;16268;49.880;8.648;2023-02-18T05:32:38;11.90;99.90
29241;DHT22;16268;49.880;8.648;2023-02-18T05:35:03;11.80;99.90
29241;DHT22;16268;49.880;8.648;2023-02-18T05:37:29;11.80;99.90
29241;DHT22;16268;49.880;8.648;2023-02-18T05:39:55;11.80;99.90
29241;DHT22;16268;49.880;8.648;2023-02-18T05:42:20;11.80;99.90
29241;DHT22;16268;49.880;8.648;2023-02-18T05:44:47;11.80;99.90
29241;DHT22;16268;49.880;8.648;2023-02-18T05:47:13;11.80;99.90
29241;DHT22;16268;49.880;8.648;2023-02-18T05:49:40;11.80;99.90
29241;DHT22;16268;49.880;8.648;2023-02-18T05:52:07;11.80;99.90
29241;DHT22;16268;49.880;8.648;2023-02-18T05:54:33;11.70;99.90
29241;DHT22;16268;49.880;8.648;2023-02-18T05:56:59;11.80;99.90
29241;DHT22;16268;49.880;8.648;2023-02-18T05:59:24;11.70;99.90
29241;DHT22;16268;49.880;8.648;2023-02-18T06:01:50;11.70;99.90
29241;DHT22;16268;49.880;8.648;2023-02-18T06:04:16;11.70;99.90
29241;DHT22;16268;49.880;8.648;2023-02-18T06:06:41;11.80;99.90
29241;DHT22;16268;49.880;8.648;2023-02-18T06:09:07;11.80;99.90
29241;DHT22;16268;49.880;8.648;2023-02-18T06:11:33;11.80;99.90
29241;DHT22;16268;49.880;8.648;2023-02-18T06:13:59;11.70;99.90
29241;DHT22;16268;49.880;8.648;2023-02-18T06:16:24;11.70;99.90
29241;DHT22;16268;49.880;8.648;2023-02-18T06:18:50;11.70;99.90
29241;DHT22;16268;49.880;8.648;2023-02-18T06:21:16;11.70;99.90
29241;DHT22;16268;49.880;8.648;2023-02-18T06:23:42;11.70;99.90
29241;DHT22;16268;49.880;8.648;2023-02-18T06:26:07;11.70;99.90
29241;DHT22;16268;49.880;8.648;2023-02-18T06:28:33;11.70;99.90
29241;DHT22;16268;49.880;8.648;2023-02-18T06:30:59;11.60;99.90
29241;DHT22;16268;49.880;8.648;2023-02-18T06:33:24;11.60;99.90
29241;DHT22;16268;49.880;8.648;2023-02-18T06:35:55;11.60;99.90
29241;DHT22;16268;49.880;8.648;2023-02-18T06:38:20;11.50;99.90
29241;DHT22;16268;49.880;8.648;2023-02-18T06:40:46;11.60;99.90
29241;DHT22;16268;49.880;8.648;2023-02-18T06:43:12;11.70;99.90
29241;DHT22;16268;49.880;8.648;2023-02-18T06:45:38;11.70;99.90
29241;DHT22;16268;49.880;8.648;2023-02-18T06:48:04;11.70;99.90
29241;DHT22;16268;49.880;8.648;2023-02-18T06:50:29;11.80;99.90
29241;DHT22;16268;49.880;8.648;2023-02-18T06:52:55;11.80;99.90
29241;DHT22;16268;49.880;8.648;2023-02-18T06:55:21;11.80;99.90
29241;DHT22;16268;49.880;8.648;2023-02-18T06:57:46;11.80;99.90
29241;DHT22;16268;49.880;8.648;2023-02-18T07:00:12;11.90;99.90
29241;DHT22;16268;49.880;8.648;2023-02-18T07:02:38;11.90;99.90
29241;DHT22;16268;49.880;8.648;2023-02-18T07:05:04;11.90;99.90
29241;DHT22;16268;49.880;8.648;2023-02-18T07:07:30;11.90;99.90
29241;DHT22;16268;49.880;8.648;2023-02-18T07:09:56;11.90;99.90
29241;DHT22;16268;49.880;8.648;2023-02-18T07:12:21;11.90;99.90
29241;DHT22;16268;49.880;8.648;2023-02-18T07:14:47;11.80;99.90
29241;DHT22;16268;49.880;8.648;2023-02-18T07:17:12;11.90;99.90
29241;DHT22;16268;49.880;8.648;2023-02-18T07:19:39;11.90;99.90
29241;DHT22;16268;49.880;8.648;2023-02-18T07:22:04;11.90;99.90
29241;DHT22;16268;49.880;8.648;2023-02-18T07:24:30;11.90;99.90
29241;DHT22;16268;49.880;8.648;2023-02-18T07:26:56;11.90;99.90
29241;DHT22;16268;49.880;8.648;2023-02-18T07:29:21;11.90;99.90
29241;DHT22;16268;49.880;8.648;2023-02-18T07:31:47;12.00;99.90
29241;DHT22;16268;49.880;8.648;2023-02-18T07:34:12;12.00;99.90
29241;DHT22;16268;49.880;8.648;2023-02-18T07:36:38;12.00;99.90
29241;DHT22;16268;49.880;8.648;2023-02-18T07:39:03;12.00;99.90
29241;DHT22;16268;49.880;8.648;2023-02-18T07:41:29;12.00;99.90
29241;DHT22;16268;49.880;8.648;2023-02-18T07:43:55;12.00;99.90
29241;DHT22;16268;49.880;8.648;2023-02-18T07:46:21;12.00;99.90
29241;DHT22;16268;49.880;8.648;2023-02-18T07:48:46;12.00;99.90
29241;DHT22;16268;49.880;8.648;2023-02-18T07:51:12;12.00;99.90
29241;DHT22;16268;49.880;8.648;2023-02-18T07:53:38;12.00;99.90
29241;DHT22;16268;49.880;8.648;2023-02-18T07:56:05;12.00;99.90
29241;DHT22;16268;49.880;8.648;2023-02-18T07:58:35;12.00;99.90
29241;DHT22;16268;49.880;8.648;2023-02-18T08:01:09;12.00;99.90
29241;DHT22;16268;49.880;8.648;2023-02-18T08:03:36;12.00;99.90
29241;DHT22;16268;49.880;8.648;2023-02-18T08:06:03;12.00;99.90
29241;DHT22;16268;49.880;8.648;2023-02-18T08:08:30;12.00;99.90
29241;DHT22;16268;49.880;8.648;2023-02-18T08:10:58;12.10;99.90
29241;DHT22;16268;49.880;8.648;2023-02-18T08:13:24;12.10;99.90
29241;DHT22;16268;49.880;8.648;2023-02-18T08:15:49;12.10;99.90
29241;DHT22;16268;49.880;8.648;2023-02-18T08:18:21;12.10;99.90
29241;DHT22;16268;49.880;8.648;2023-02-18T08:20:47;12.10;99.90
29241;DHT22;16268;49.880;8.648;2023-02-18T08:23:14;12.20;99.90
29241;DHT22;16268;49.880;8.648;2023-02-18T08:25:44;12.20;99.90
29241;DHT22;16268;49.880;8.648;2023-02-18T08:28:10;12.20;99.90
29241;DHT22;16268;49.880;8.648;2023-02-18T08:30:36;12.20;99.90
29241;DHT22;16268;49.880;8.648;2023-02-18T08:33:01;12.30;99.90
29241;DHT22;16268;49.880;8.648;2023-02-18T08:35:27;12.30;99.90
29241;DHT22;16268;49.880;8.648;2023-02-18T08:37:52;12.40;99.90
29241;DHT22;16268;49.880;8.648;2023-02-18T08:40:18;12.40;99.90
29241;DHT22;16268;49.880;8.648;2023-02-18T08:42:44;12.40;99.90
29241;DHT22;16268;49.880;8.648;2023-02-18T08:45:09;12.40;99.90
29241;DHT22;16268;49.880;8.648;2023-02-18T08:47:35;12.40;99.90
29241;DHT22;16268;49.880;8.648;2023-02-18T08:50:00;12.40;99.90
29241;DHT22;16268;49.880;8.648;2023-02-18T08:52:26;12.40;99.90
29241;DHT22;16268;49.880;8.648;2023-02-18T08:54:52;12.40;99.90
29241;DHT22;16268;49.880;8.648;2023-02-18T08:57:17;12.40;99.90
29241;DHT22;16268;49.880;8.648;2023-02-18T08:59:43;12.50;99.90
29241;DHT22;16268;49.880;8.648;2023-02-18T09:02:12;12.60;99.90
29241;DHT22;16268;49.880;8.648;2023-02-18T09:04:37;12.70;99.90
29241;DHT22;16268;49.880;8.648;2023-02-18T09:07:03;12.70;99.90
29241;DHT22;16268;49.880;8.648;2023-02-18T09:09:29;12.70;99.90
29241;DHT22;16268;49.880;8.648;2023-02-18T09:11:54;12.70;99.90
29241;DHT22;16268;49.880;8.648;2023-02-18T09:14:20;12.50;99.90
29241;DHT22;16268;49.880;8.648;2023-02-18T09:16:46;12.50;99.90
29241;DHT22;16268;49.880;8.648;2023-02-18T09:19:11;12.40;99.90
29241;DHT22;16268;49.880;8.648;2023-02-18T09:21:37;12.40;99.90
29241;DHT22;16268;49.880;8.648;2023-02-18T09:24:03;12.40;99.90
29241;DHT22;16268;49.880;8.648;2023-02-18T09:26:28;12.50;99.90
29241;DHT22;16268;49.880;8.648;2023-02-18T09:28:55;12.50;99.90
29241;DHT22;16268;49.880;8.648;2023-02-18T09:31:23;12.60;99.90
29241;DHT22;16268;49.880;8.648;2023-02-18T09:33:51;12.60;99.90
29241;DHT22;16268;49.880;8.648;2023-02-18T09:36:18;12.70;99.90
29241;DHT22;16268;49.880;8.648;2023-02-18T09:38:45;12.80;99.90
29241;DHT22;16268;49.880;8.648;2023-02-18T09:41:33;12.70;99.90
29241;DHT22;16268;49.880;8.648;2023-02-18T09:44:05;12.80;99.90
29241;DHT22;16268;49.880;8.648;2023-02-18T09:46:38;12.80;99.90
29241;DHT22;16268;49.880;8.648;2023-02-18T09:49:24;12.70;99.90
29241;DHT22;16268;49.880;8.648;2023-02-18T09:51:51;12.80;99.90
29241;DHT22;16268;49.880;8.648;2023-02-18T09:54:18;12.70;99.90
29241;DHT22;16268;49.880;8.648;2023-02-18T09:56:45;12.70;99.90
29241;DHT22;16268;49.880;8.648;2023-02-18T09:59:16;12.70;99.90
29241;DHT22;16268;49.880;8.648;2023-02-18T10:01:43;12.70;99.90
29241;DHT22;16268;49.880;8.648;2023-02-18T10:04:29;12.90;99.90
29241;DHT22;16268;49.880;8.648;2023-02-18T10:06:57;13.00;99.90
29241;DHT22;16268;49.880;8.648;2023-02-18T10:09:32;13.10;99.90
29241;DHT22;16268;49.880;8.648;2023-02-18T10:12:19;13.10;99.90
29241;DHT22;16268;49.880;8.648;2023-02-18T10:14:52;13.10;99.90
29241;DHT22;16268;49.880;8.648;2023-02-18T10:17:19;13.10;99.90
29241;DHT22;16268;49.880;8.648;2023-02-18T10:19:47;13.30;99.90
29241;DHT22;16268;49.880;8.648;2023-02-18T10:22:14;13.40;99.90
29241;DHT22;16268;49.880;8.648;2023-02-18T10:24:47;13.40;99.90
29241;DHT22;16268;49.880;8.648;2023-02-18T10:27:23;13.50;99.90
29241;DHT22;16268;49.880;8.648;2023-02-18T10:29:49;13.50;99.90
29241;DHT22;16268;49.880;8.648;2023-02-18T10:32:35;13.60;99.90
29241;DHT22;16268;49.880;8.648;2023-02-18T10:35:30;13.70;99.90
29241;DHT22;16268;49.880;8.648;2023-02-18T10:38:15;13.70;99.90
29241;DHT22;16268;49.880;8.648;2023-02-18T10:41:09;13.50;99.90
29241;DHT22;16268;49.880;8.648;2023-02-18T10:46:39;13.60;99.90
29241;DHT22;16268;49.880;8.648;2023-02-18T10:51:55;13.70;99.90
29241;DHT22;16268;49.880;8.648;2023-02-18T10:54:26;13.80;99.90
29241;DHT22;16268;49.880;8.648;2023-02-18T10:56:58;13.80;99.90
29241;DHT22;16268;49.880;8.648;2023-02-18T10:59:26;13.80;99.90
29241;DHT22;16268;49.880;8.648;2023-02-18T11:04:27;13.80;99.90
29241;DHT22;16268;49.880;8.648;2023-02-18T11:07:04;13.70;99.90
29241;DHT22;16268;49.880;8.648;2023-02-18T11:09:40;13.60;99.90
29241;DHT22;16268;49.880;8.648;2023-02-18T11:12:19;13.40;99.90
29241;DHT22;16268;49.880;8.648;2023-02-18T11:17:39;13.20;99.90
29241;DHT22;16268;49.880;8.648;2023-02-18T11:20:25;13.10;99.90
29241;DHT22;16268;49.880;8.648;2023-02-18T11:22:51;12.90;99.90
29241;DHT22;16268;49.880;8.648;2023-02-18T11:25:21;12.90;99.90
29241;DHT22;16268;49.880;8.648;2023-02-18T11:27:54;12.90;99.90
29241;DHT22;16268;49.880;8.648;2023-02-18T11:32:48;12.80;99.90
29241;DHT22;16268;49.880;8.648;2023-02-18T11:35:18;12.90;99.90
29241;DHT22;16268;49.880;8.648;2023-02-18T11:37:44;12.80;99.90
29241;DHT22;16268;49.880;8.648;2023-02-18T11:40:32;12.70;99.90
29241;DHT22;16268;49.880;8.648;2023-02-18T11:43:13;12.70;99.90
29241;DHT22;16268;49.880;8.648;2023-02-18T11:45:39;12.70;99.90
29241;DHT22;16268;49.880;8.648;2023-02-18T11:48:15;12.60;99.90
29241;DHT22;16268;49.880;8.648;2023-02-18T11:50:41;12.70;99.90
29241;DHT22;16268;49.880;8.648;2023-02-18T11:53:30;12.70;99.90
29241;DHT22;16268;49.880;8.648;2023-02-18T11:56:02;12.70;99.90
29241;DHT22;16268;49.880;8.648;2023-02-18T11:58:40;12.80;99.90
29241;DHT22;16268;49.880;8.648;2023-02-18T12:01:14;12.90;99.90
29241;DHT22;16268;49.880;8.648;2023-02-18T12:04:15;12.90;99.90
29241;DHT22;16268;49.880;8.648;2023-02-18T12:07:18;12.90;99.90
29241;DHT22;16268;49.880;8.648;2023-02-18T12:09:53;12.90;99.90
29241;DHT22;16268;49.880;8.648;2023-02-18T12:12:44;13.00;99.90
29241;DHT22;16268;49.880;8.648;2023-02-18T12:15:17;13.00;99.90
29241;DHT22;16268;49.880;8.648;2023-02-18T12:20:51;12.90;99.90
29241;DHT22;16268;49.880;8.648;2023-02-18T12:23:28;12.90;99.90
29241;DHT22;16268;49.880;8.648;2023-02-18T12:26:20;12.90;99.90
29241;DHT22;16268;49.880;8.648;2023-02-18T12:43:28;12.70;99.90
29241;DHT22;16268;49.880;8.648;2023-02-18T12:46:01;12.80;99.90
29241;DHT22;16268;49.880;8.648;2023-02-18T12:48:46;12.70;99.90
29241;DHT22;16268;49.880;8.648;2023-02-18T12:54:12;12.80;99.90
29241;DHT22;16268;49.880;8.648;2023-02-18T12:56:58;12.80;99.90
29241;DHT22;16268;49.880;8.648;2023-02-18T12:59:49;12.80;99.90
29241;DHT22;16268;49.880;8.648;2023-02-18T13:02:51;12.80;99.90
29241;DHT22;16268;49.880;8.648;2023-02-18T13:05:43;12.80;99.90
29241;DHT22;16268;49.880;8.648;2023-02-18T13:08:28;12.70;99.90
29241;DHT22;16268;49.880;8.648;2023-02-18T13:14:12;12.70;99.90
29241;DHT22;16268;49.880;8.648;2023-02-18T13:16:43;12.70;99.90
29241;DHT22;16268;49.880;8.648;2023-02-18T13:19:19;12.80;99.90
29241;DHT22;16268;49.880;8.648;2023-02-18T13:21:48;12.70;99.90
29241;DHT22;16268;49.880;8.648;2023-02-18T13:24:36;12.80;99.90
29241;DHT22;16268;49.880;8.648;2023-02-18T13:29:57;12.80;99.90
29241;DHT22;16268;49.880;8.648;2023-02-18T13:32:32;12.80;99.90
29241;DHT22;16268;49.880;8.648;2023-02-18T13:40:52;12.90;99.90
29241;DHT22;16268;49.880;8.648;2023-02-18T13:49:20;12.80;99.90
29241;DHT22;16268;49.880;8.648;2023-02-18T13:51:30;12.80;99.90
29241;DHT22;16268;49.880;8.648;2023-02-18T13:54:15;12.90;99.90
29241;DHT22;16268;49.880;8.648;2023-02-18T13:59:10;12.90;99.90
29241;DHT22;16268;49.880;8.648;2023-02-18T14:01:43;12.90;99.90
29241;DHT22;16268;49.880;8.648;2023-02-18T14:09:50;12.80;99.90
29241;DHT22;16268;49.880;8.648;2023-02-18T14:12:37;12.90;99.90
29241;DHT22;16268;49.880;8.648;2023-02-18T14:22:57;12.90;99.90
29241;DHT22;16268;49.880;8.648;2023-02-18T14:25:38;12.90;99.90
29241;DHT22;16268;49.880;8.648;2023-02-18T14:39:41;12.70;99.90
29241;DHT22;16268;49.880;8.648;2023-02-18T14:42:34;12.70;99.90
29241;DHT22;16268;49.880;8.648;2023-02-18T14:45:16;12.70;99.90
29241;DHT22;16268;49.880;8.648;2023-02-18T14:50:33;12.70;99.90
29241;DHT22;16268;49.880;8.648;2023-02-18T14:53:04;12.60;99.90
29241;DHT22;16268;49.880;8.648;2023-02-18T14:55:40;12.60;99.90
29241;DHT22;16268;49.880;8.648;2023-02-18T15:00:43;12.50;99.90
29241;DHT22;16268;49.880;8.648;2023-02-18T15:03:15;12.40;99.90
29241;DHT22;16268;49.880;8.648;2023-02-18T15:05:42;12.40;99.90
29241;DHT22;16268;49.880;8.648;2023-02-18T15:08:20;12.40;99.90
29241;DHT22;16268;49.880;8.648;2023-02-18T15:15:44;12.40;99.90
29241;DHT22;16268;49.880;8.648;2023-02-18T15:18:21;12.40;99.90
29241;DHT22;16268;49.880;8.648;2023-02-18T15:20:48;12.40;99.90
29241;DHT22;16268;49.880;8.648;2023-02-18T15:23:15;12.40;99.90
29241;DHT22;16268;49.880;8.648;2023-02-18T15:25:45;12.40;99.90
29241;DHT22;16268;49.880;8.648;2023-02-18T15:28:27;12.40;99.90
29241;DHT22;16268;49.880;8.648;2023-02-18T15:31:03;12.30;99.90
29241;DHT22;16268;49.880;8.648;2023-02-18T15:33:29;12.40;99.90
29241;DHT22;16268;49.880;8.648;2023-02-18T15:36:05;12.40;99.90
29241;DHT22;16268;49.880;8.648;2023-02-18T15:38:31;12.40;99.90
29241;DHT22;16268;49.880;8.648;2023-02-18T15:40:58;12.40;99.90
29241;DHT22;16268;49.880;8.648;2023-02-18T15:43:25;12.40;99.90
29241;DHT22;16268;49.880;8.648;2023-02-18T15:45:55;12.40;99.90
29241;DHT22;16268;49.880;8.648;2023-02-18T15:48:42;12.40;99.90
29241;DHT22;16268;49.880;8.648;2023-02-18T15:51:11;12.50;99.90
29241;DHT22;16268;49.880;8.648;2023-02-18T15:53:41;12.50;99.90
29241;DHT22;16268;49.880;8.648;2023-02-18T15:56:16;12.50;99.90
29241;DHT22;16268;49.880;8.648;2023-02-18T15:58:42;12.50;99.90
29241;DHT22;16268;49.880;8.648;2023-02-18T16:01:25;12.40;99.90
29241;DHT22;16268;49.880;8.648;2023-02-18T16:03:53;12.40;99.90
29241;DHT22;16268;49.880;8.648;2023-02-18T16:06:36;12.40;99.90
29241;DHT22;16268;49.880;8.648;2023-02-18T16:09:14;12.40;99.90
29241;DHT22;16268;49.880;8.648;2023-02-18T16:11:45;12.40;99.90
29241;DHT22;16268;49.880;8.648;2023-02-18T16:14:23;12.40;99.90
29241;DHT22;16268;49.880;8.648;2023-02-18T16:17:25;12.40;99.90
29241;DHT22;16268;49.880;8.648;2023-02-18T16:20:00;12.40;99.90
29241;DHT22;16268;49.880;8.648;2023-02-18T16:30:41;12.40;99.90
29241;DHT22;16268;49.880;8.648;2023-02-18T16:33:07;12.30;99.90
29241;DHT22;16268;49.880;8.648;2023-02-18T16:35:33;12.30;99.90
29241;DHT22;16268;49.880;8.648;2023-02-18T16:37:59;12.30;99.90
29241;DHT22;16268;49.880;8.648;2023-02-18T16:40:29;12.20;99.90
29241;DHT22;16268;49.880;8.648;2023-02-18T16:42:55;12.20;99.90
29241;DHT22;16268;49.880;8.648;2023-02-18T16:45:29;12.20;99.90
29241;DHT22;16268;49.880;8.648;2023-02-18T16:47:56;12.20;99.90
29241;DHT22;16268;49.880;8.648;2023-02-18T16:50:22;12.10;99.90
29241;DHT22;16268;49.880;8.648;2023-02-18T16:52:48;12.20;99.90
29241;DHT22;16268;49.880;8.648;2023-02-18T16:55:19;12.10;99.90
29241;DHT22;16268;49.880;8.648;2023-02-18T16:57:45;12.10;99.90
29241;DHT22;16268;49.880;8.648;2023-02-18T17:00:12;12.10;99.90
29241;DHT22;16268;49.880;8.648;2023-02-18T17:02:37;12.10;99.90
29241;DHT22;16268;49.880;8.648;2023-02-18T17:05:05;12.00;99.90
29241;DHT22;16268;49.880;8.648;2023-02-18T17:07:30;12.00;99.90
29241;DHT22;16268;49.880;8.648;2023-02-18T17:09:58;12.00;99.90
29241;DHT22;16268;49.880;8.648;2023-02-18T17:12:24;12.00;99.90
29241;DHT22;16268;49.880;8.648;2023-02-18T17:14:50;12.00;99.90
29241;DHT22;16268;49.880;8.648;2023-02-18T17:17:17;12.00;99.90
29241;DHT22;16268;49.880;8.648;2023-02-18T17:19:47;11.90;99.90
29241;DHT22;16268;49.880;8.648;2023-02-18T17:22:13;11.90;99.90
29241;DHT22;16268;49.880;8.648;2023-02-18T17:24:39;11.90;99.90
29241;DHT22;16268;49.880;8.648;2023-02-18T17:27:05;11.90;99.90
29241;DHT22;16268;49.880;8.648;2023-02-18T17:29:30;11.90;99.90
29241;DHT22;16268;49.880;8.648;2023-02-18T17:31:57;11.90;99.90
29241;DHT22;16268;49.880;8.648;2023-02-18T17:34:27;11.90;99.90
29241;DHT22;16268;49.880;8.648;2023-02-18T17:36:55;11.90;99.90
29241;DHT22;16268;49.880;8.648;2023-02-18T17:39:21;11.90;99.90
29241;DHT22;16268;49.880;8.648;2023-02-18T17:41:48;11.90;99.90
29241;DHT22;16268;49.880;8.648;2023-02-18T17:44:17;11.90;99.90
29241;DHT22;16268;49.880;8.648;2023-02-18T17:46:43;11.80;99.90
29241;DHT22;16268;49.880;8.648;2023-02-18T17:49:09;11.80;99.90
29241;DHT22;16268;49.880;8.648;2023-02-18T17:51:34;11.80;99.90
29241;DHT22;16268;49.880;8.648;2023-02-18T17:54:03;11.80;99.90
29241;DHT22;16268;49.880;8.648;2023-02-18T17:56:34;11.80;99.90
29241;DHT22;16268;49.880;8.648;2023-02-18T17:59:00;11.80;99.90
29241;DHT22;16268;49.880;8.648;2023-02-18T18:01:26;11.80;99.90
29241;DHT22;16268;49.880;8.648;2023-02-18T18:03:51;11.80;99.90
29241;DHT22;16268;49.880;8.648;2023-02-18T18:06:19;11.80;99.90